Time;durP1;ratioP1;P1;durP2;ratioP2;P2;SDS_P1;SDS_P2;PMS_P1;PMS_P2;Temp;Humidity;BMP_temperature;BMP_pressure;BME280_temperature;BME280_humidity;BME280_pressure;Samples;Min_cycle;Max_cycle;Signal;HPM_P1;HPM_P2
2021/10/20 00:00:38;;;;;;;;;;;;;;;12.93;100.00;100685.44;5115234;28;20034;-69
2021/10/20 00:03:04;;;;;;;;;;;;;;;12.97;100.00;100689.59;5115368;28;20031;-69
2021/10/20 00:05:32;;;;;;;;;;;;;;;13.00;100.00;100689.34;5115154;28;20361;-69
2021/10/20 00:08:00;;;;;;;;;;;;;;;13.00;100.00;100675.72;5114604;28;19934;-69
2021/10/20 00:10:26;;;;;;;;;;;;;;;12.98;100.00;100674.13;5114983;28;19958;-69
2021/10/20 00:12:52;;;;;;;;;;;;;;;12.98;100.00;100666.81;5114963;28;19928;-69
2021/10/20 00:15:20;;;;;;;;;;;;;;;12.90;100.00;100659.34;5113832;28;20019;-69
2021/10/20 00:17:46;;;;;;;;;;;;;;;12.84;100.00;100668.09;5114713;28;19930;-69
2021/10/20 00:20:16;;;;;;;;;;;;;;;12.81;100.00;100671.06;5114977;28;19924;-69
2021/10/20 00:22:44;;;;;;;;;;;;;;;12.75;100.00;100658.03;5114671;28;19924;-69
2021/10/20 00:25:10;;;;;;;;;;;;;;;12.70;100.00;100663.03;5114676;28;20039;-69
2021/10/20 00:27:37;;;;;;;;;;;;;;;12.66;100.00;100658.88;5112840;28;20014;-69
2021/10/20 00:30:03;;;;;;;;;;;;;;;12.59;100.00;100653.13;5114628;28;19940;-69
2021/10/20 00:32:30;;;;;;;;;;;;;;;12.56;100.00;100646.09;5114609;28;19923;-69
2021/10/20 00:34:56;;;;;;;;;;;;;;;12.55;100.00;100651.69;5113271;28;20014;-69
2021/10/20 00:37:22;;;;;;;;;;;;;;;12.53;100.00;100637.34;5114483;28;20275;-69
2021/10/20 00:39:50;;;;;;;;;;;;;;;12.49;100.00;100641.34;5114835;28;20189;-68
2021/10/20 00:42:18;;;;;;;;;;;;;;;12.50;100.00;100643.91;5114180;28;19924;-69
2021/10/20 00:44:44;;;;;;;;;;;;;;;12.46;100.00;100642.47;5114221;28;19927;-69
2021/10/20 00:47:11;;;;;;;;;;;;;;;12.42;100.00;100630.16;5114216;28;19924;-69
2021/10/20 00:49:37;;;;;;;;;;;;;;;12.42;100.00;100623.84;5114334;28;20030;-69
2021/10/20 00:52:04;;;;;;;;;;;;;;;12.39;100.00;100617.69;5114229;28;20014;-69
2021/10/20 00:54:30;;;;;;;;;;;;;;;12.42;100.00;100618.41;5114236;28;19924;-69
2021/10/20 00:56:58;;;;;;;;;;;;;;;12.46;100.00;100617.13;5113950;28;20018;-69
2021/10/20 00:59:24;;;;;;;;;;;;;;;12.44;100.00;100617.28;5114211;28;19984;-69
2021/10/20 01:01:51;;;;;;;;;;;;;;;12.47;100.00;100607.97;5113554;28;20019;-69
2021/10/20 01:04:17;;;;;;;;;;;;;;;12.44;100.00;100600.94;5114021;28;19930;-68
2021/10/20 01:06:43;;;;;;;;;;;;;;;12.44;100.00;100602.78;5113737;28;19963;-68
2021/10/20 01:09:10;;;;;;;;;;;;;;;12.43;100.00;100603.81;5113944;28;19930;-69
2021/10/20 01:11:36;;;;;;;;;;;;;;;12.41;100.00;100590.31;5113923;28;20459;-69
2021/10/20 01:14:03;;;;;;;;;;;;;;;12.37;100.00;100588.88;5113913;28;20027;-69
2021/10/20 01:16:30;;;;;;;;;;;;;;;12.33;100.00;100582.00;5113687;28;20026;-69
2021/10/20 01:18:56;;;;;;;;;;;;;;;12.28;100.00;100576.97;5112032;28;20330;-69
2021/10/20 01:21:24;;;;;;;;;;;;;;;12.27;100.00;100580.69;5110660;28;20023;-69
2021/10/20 01:23:50;;;;;;;;;;;;;;;12.29;100.00;100570.50;5113956;28;19924;-69
2021/10/20 01:26:17;;;;;;;;;;;;;;;12.32;100.00;100564.81;5113369;28;20022;-69
2021/10/20 01:28:43;;;;;;;;;;;;;;;12.34;100.00;100556.50;5113488;28;19923;-68
2021/10/20 01:31:10;;;;;;;;;;;;;;;12.37;100.00;100548.91;5113817;28;20103;-68
2021/10/20 01:33:36;;;;;;;;;;;;;;;12.40;100.00;100555.94;5113460;28;19977;-69
2021/10/20 01:36:03;;;;;;;;;;;;;;;12.42;100.00;100553.94;5112698;28;20414;-69
2021/10/20 01:38:31;;;;;;;;;;;;;;;12.43;100.00;100546.66;5112882;28;20010;-69
2021/10/20 01:40:57;;;;;;;;;;;;;;;12.41;100.00;100545.91;5113308;28;19934;-69
2021/10/20 01:43:23;;;;;;;;;;;;;;;12.37;100.00;100546.19;5113346;28;19924;-69
2021/10/20 01:45:49;;;;;;;;;;;;;;;12.36;100.00;100543.63;5112848;28;19950;-68
2021/10/20 01:48:16;;;;;;;;;;;;;;;12.35;100.00;100541.91;5113093;28;19928;-69
2021/10/20 01:50:42;;;;;;;;;;;;;;;12.35;100.00;100539.19;5112973;28;19946;-69
2021/10/20 01:53:08;;;;;;;;;;;;;;;12.35;100.00;100531.84;5112995;28;20481;-69
2021/10/20 01:55:36;;;;;;;;;;;;;;;12.38;100.00;100531.56;5112752;28;20390;-69
2021/10/20 01:58:02;;;;;;;;;;;;;;;12.42;100.00;100534.88;5112850;28;20339;-69
2021/10/20 02:00:28;;;;;;;;;;;;;;;12.43;100.00;100530.31;5112955;28;20022;-69
2021/10/20 02:02:55;;;;;;;;;;;;;;;12.42;100.00;100521.25;5112699;28;19930;-69
2021/10/20 02:05:21;;;;;;;;;;;;;;;12.41;100.00;100516.81;5112932;28;20436;-69
2021/10/20 02:07:47;;;;;;;;;;;;;;;12.46;100.00;100513.69;5112670;28;19924;-69
2021/10/20 02:10:15;;;;;;;;;;;;;;;12.48;100.00;100507.09;5112655;28;20014;-69
2021/10/20 02:12:43;;;;;;;;;;;;;;;12.47;100.00;100507.25;5112518;28;19924;-69
2021/10/20 02:15:10;;;;;;;;;;;;;;;12.41;100.00;100494.19;5112246;28;20301;-69
2021/10/20 02:17:36;;;;;;;;;;;;;;;12.35;100.00;100492.91;5112543;27;20018;-69
2021/10/20 02:20:04;;;;;;;;;;;;;;;12.33;100.00;100484.88;5112677;28;19969;-69
2021/10/20 02:22:30;;;;;;;;;;;;;;;12.25;100.00;100487.44;5112348;28;19924;-69
2021/10/20 02:24:56;;;;;;;;;;;;;;;12.17;100.00;100482.72;5112217;28;19934;-69
2021/10/20 02:27:22;;;;;;;;;;;;;;;12.09;100.00;100487.97;5111295;28;20018;-69
2021/10/20 02:29:50;;;;;;;;;;;;;;;12.11;100.00;100491.44;5112297;28;20363;-69
2021/10/20 02:32:16;;;;;;;;;;;;;;;12.09;100.00;100490.69;5112284;28;20369;-69
2021/10/20 02:34:42;;;;;;;;;;;;;;;12.05;100.00;100491.97;5111953;28;19930;-69
2021/10/20 02:37:09;;;;;;;;;;;;;;;12.03;100.00;100481.25;5112157;28;19930;-69
2021/10/20 02:39:35;;;;;;;;;;;;;;;12.03;100.00;100483.97;5112076;28;19930;-69
2021/10/20 02:42:01;;;;;;;;;;;;;;;11.99;100.00;100473.53;5112455;28;19928;-69
2021/10/20 02:44:27;;;;;;;;;;;;;;;11.96;100.00;100473.78;5112227;28;20010;-69
2021/10/20 02:46:55;;;;;;;;;;;;;;;11.93;100.00;100476.75;5111921;28;19927;-69
2021/10/20 02:49:21;;;;;;;;;;;;;;;11.89;100.00;100470.72;5112068;28;20014;-69
2021/10/20 02:51:48;;;;;;;;;;;;;;;11.86;100.00;100465.56;5111134;28;20361;-69
2021/10/20 02:54:14;;;;;;;;;;;;;;;11.82;100.00;100462.25;5111797;28;20022;-69
2021/10/20 02:56:40;;;;;;;;;;;;;;;11.81;100.00;100462.41;5111689;28;20022;-69
2021/10/20 02:59:06;;;;;;;;;;;;;;;11.83;100.00;100455.84;5111913;28;20014;-69
2021/10/20 03:01:33;;;;;;;;;;;;;;;11.79;100.00;100456.25;5111862;28;20045;-69
2021/10/20 03:04:00;;;;;;;;;;;;;;;11.78;100.00;100452.66;5110651;28;19923;-69
2021/10/20 03:06:26;;;;;;;;;;;;;;;11.75;100.00;100443.94;5111939;28;19928;-69
2021/10/20 03:08:53;;;;;;;;;;;;;;;11.73;100.00;100441.34;5111798;28;19924;-69
2021/10/20 03:11:19;;;;;;;;;;;;;;;11.71;100.00;100446.94;5111599;28;19959;-69
2021/10/20 03:13:45;;;;;;;;;;;;;;;11.68;100.00;100440.94;5111756;28;19924;-69
2021/10/20 03:16:11;;;;;;;;;;;;;;;11.70;100.00;100442.50;5111409;28;19930;-69
2021/10/20 03:18:38;;;;;;;;;;;;;;;11.65;100.00;100438.47;5101918;28;19925;-69
2021/10/20 03:21:05;;;;;;;;;;;;;;;11.62;100.00;100433.31;5091299;28;20101;-69
2021/10/20 03:23:32;;;;;;;;;;;;;;;11.58;100.00;100435.44;5091620;28;20542;-69
2021/10/20 03:25:58;;;;;;;;;;;;;;;11.62;100.00;100436.88;5091017;28;19947;-69
2021/10/20 03:28:24;;;;;;;;;;;;;;;11.62;100.00;100439.59;5091175;28;19925;-69
2021/10/20 03:30:50;;;;;;;;;;;;;;;11.64;100.00;100437.63;5091165;28;20018;-69
2021/10/20 03:33:16;;;;;;;;;;;;;;;11.62;100.00;100431.44;5091388;28;19934;-69
2021/10/20 03:35:43;;;;;;;;;;;;;;;11.59;100.00;100425.44;5091045;28;19924;-69
2021/10/20 03:38:11;;;;;;;;;;;;;;;11.54;100.00;100424.00;5091099;28;19934;-68
2021/10/20 03:40:37;;;;;;;;;;;;;;;11.52;100.00;100430.56;5091091;28;20373;-69
2021/10/20 03:43:04;;;;;;;;;;;;;;;11.47;100.00;100420.09;5091124;28;19928;-68
2021/10/20 03:45:31;;;;;;;;;;;;;;;11.44;100.00;100423.09;5091014;28;20379;-69
2021/10/20 03:47:57;;;;;;;;;;;;;;;11.42;100.00;100408.78;5090590;28;19935;-69
2021/10/20 03:50:24;;;;;;;;;;;;;;;11.40;100.00;100421.66;5091152;28;19930;-69
2021/10/20 03:52:50;;;;;;;;;;;;;;;11.39;100.00;100403.63;5091043;28;19924;-69
2021/10/20 03:55:18;;;;;;;;;;;;;;;11.34;100.00;100412.22;5090973;28;19928;-68
2021/10/20 03:57:44;;;;;;;;;;;;;;;11.36;100.00;100417.50;5090854;28;19928;-68
2021/10/20 04:00:12;;;;;;;;;;;;;;;11.36;100.00;100410.19;5090951;28;19924;-69
2021/10/20 04:02:43;;;;;;;;;;;;;;;11.39;100.00;100406.34;5092801;28;20338;-69
2021/10/20 04:05:09;;;;;;;;;;;;;;;11.45;100.00;100408.53;5093014;28;19924;-69
2021/10/20 04:07:37;;;;;;;;;;;;;;;11.44;100.00;100395.94;5094594;28;20295;-69
2021/10/20 04:10:04;;;;;;;;;;;;;;;11.44;100.00;100393.22;5094703;28;19924;-69
2021/10/20 04:12:32;;;;;;;;;;;;;;;11.44;100.00;100395.94;5094648;28;19931;-69
2021/10/20 04:14:58;;;;;;;;;;;;;;;11.49;100.00;100400.94;5094534;28;19924;-69
2021/10/20 04:17:24;;;;;;;;;;;;;;;11.45;100.00;100385.91;5094452;28;19959;-69
2021/10/20 04:19:51;;;;;;;;;;;;;;;11.44;100.00;100395.03;5094310;28;19963;-68
2021/10/20 04:22:17;;;;;;;;;;;;;;;11.47;100.00;100395.63;5094256;28;20015;-69
2021/10/20 04:24:43;;;;;;;;;;;;;;;11.46;100.00;100380.31;5094333;28;20398;-69
2021/10/20 04:27:09;;;;;;;;;;;;;;;11.47;100.00;100384.75;5093013;28;20268;-69
2021/10/20 04:29:37;;;;;;;;;;;;;;;11.46;100.00;100377.59;5094431;28;20022;-69
2021/10/20 04:32:03;;;;;;;;;;;;;;;11.50;100.00;100370.03;5094201;28;20391;-69
2021/10/20 04:34:30;;;;;;;;;;;;;;;11.47;100.00;100367.63;5094264;28;19924;-69
2021/10/20 04:36:56;;;;;;;;;;;;;;;11.45;100.00;100365.03;5092542;28;20014;-69
2021/10/20 04:39:22;;;;;;;;;;;;;;;11.42;100.00;100357.13;5094123;28;19930;-69
2021/10/20 04:41:48;;;;;;;;;;;;;;;11.41;100.00;100351.84;5093784;28;20621;-68
2021/10/20 04:44:16;;;;;;;;;;;;;;;11.39;100.00;100346.56;5093968;28;19924;-69
2021/10/20 04:46:43;;;;;;;;;;;;;;;11.40;100.00;100345.56;5093790;28;19924;-68
2021/10/20 04:49:09;;;;;;;;;;;;;;;11.36;100.00;100338.69;5093971;28;19931;-69
2021/10/20 04:51:36;;;;;;;;;;;;;;;11.32;100.00;100335.38;5093341;28;20445;-69
2021/10/20 04:54:02;;;;;;;;;;;;;;;11.30;100.00;100339.25;5093428;28;20351;-69
2021/10/20 04:56:28;;;;;;;;;;;;;;;11.29;100.00;100335.69;5093572;28;19931;-68
2021/10/20 04:58:54;;;;;;;;;;;;;;;11.26;100.00;100332.38;5093591;28;20392;-69
2021/10/20 05:01:21;;;;;;;;;;;;;;;11.25;100.00;100328.81;5093442;28;20401;-69
2021/10/20 05:03:48;;;;;;;;;;;;;;;11.21;100.00;100328.22;5093466;28;19928;-68
2021/10/20 05:06:15;;;;;;;;;;;;;;;11.18;100.00;100320.34;5093530;28;19931;-69
2021/10/20 05:08:41;;;;;;;;;;;;;;;11.18;100.00;100319.47;5093562;28;20023;-69
2021/10/20 05:11:07;;;;;;;;;;;;;;;11.13;100.00;100319.03;5093542;28;19924;-69
2021/10/20 05:13:33;;;;;;;;;;;;;;;11.15;100.00;100328.75;5103244;28;19923;-69
2021/10/20 05:16:00;;;;;;;;;;;;;;;11.20;100.00;100323.78;5113593;28;20123;-69
2021/10/20 05:18:26;;;;;;;;;;;;;;;11.19;100.00;100313.03;5113688;28;20310;-69
2021/10/20 05:20:54;;;;;;;;;;;;;;;11.21;100.00;100311.03;5113305;28;19931;-68
2021/10/20 05:23:21;;;;;;;;;;;;;;;11.24;100.00;100308.06;5113626;28;19931;-69
2021/10/20 05:25:47;;;;;;;;;;;;;;;11.32;100.00;100301.94;5113684;28;19934;-68
2021/10/20 05:28:13;;;;;;;;;;;;;;;11.41;100.00;100292.06;5113363;28;20011;-68
2021/10/20 05:30:40;;;;;;;;;;;;;;;11.49;100.00;100281.34;5113329;28;20010;-69
2021/10/20 05:33:06;;;;;;;;;;;;;;;11.55;100.00;100272.63;5113578;28;20345;-69
2021/10/20 05:35:32;;;;;;;;;;;;;;;11.55;100.00;100262.59;5113443;28;20014;-69
2021/10/20 05:38:00;;;;;;;;;;;;;;;11.53;100.00;100264.63;5112988;28;19932;-69
2021/10/20 05:40:26;;;;;;;;;;;;;;;11.55;100.00;100269.91;5113499;28;19924;-69
2021/10/20 05:42:52;;;;;;;;;;;;;;;11.62;100.00;100256.59;5113237;28;19923;-69
2021/10/20 05:45:19;;;;;;;;;;;;;;;11.65;100.00;100269.91;5113134;28;20474;-69
2021/10/20 05:47:45;;;;;;;;;;;;;;;11.62;100.00;100262.03;5113010;28;19968;-69
2021/10/20 05:50:12;;;;;;;;;;;;;;;11.61;100.00;100266.63;5113142;28;20018;-69
2021/10/20 05:52:39;;;;;;;;;;;;;;;11.57;100.00;100265.19;5113007;28;19931;-69
2021/10/20 05:55:07;;;;;;;;;;;;;;;11.56;100.00;100264.31;5112871;28;20027;-69
2021/10/20 05:57:35;;;;;;;;;;;;;;;11.57;100.00;100257.03;5112744;27;20014;-68
2021/10/20 06:00:01;;;;;;;;;;;;;;;11.60;100.00;100262.19;5112888;28;20020;-69
2021/10/20 06:02:37;;;;;;;;;;;;;;;11.62;100.00;100256.59;5113209;28;20006;-69
2021/10/20 06:05:04;;;;;;;;;;;;;;;11.62;100.00;100257.44;5112620;28;20148;-69
2021/10/20 06:07:30;;;;;;;;;;;;;;;11.67;100.00;100255.16;5111273;28;19924;-69
2021/10/20 06:09:57;;;;;;;;;;;;;;;11.70;100.00;100254.91;5112520;28;20045;-68
2021/10/20 06:12:24;;;;;;;;;;;;;;;11.73;100.00;100253.72;5112339;28;19923;-69
2021/10/20 06:14:51;;;;;;;;;;;;;;;11.75;100.00;100246.31;5112329;28;19924;-69
2021/10/20 06:17:18;;;;;;;;;;;;;;;11.76;100.00;100247.16;5112324;28;20286;-69
2021/10/20 06:19:45;;;;;;;;;;;;;;;11.79;100.00;100247.72;5111234;28;19951;-69
2021/10/20 06:22:11;;;;;;;;;;;;;;;11.89;100.00;100245.88;5112517;28;19970;-69
2021/10/20 06:24:38;;;;;;;;;;;;;;;11.90;100.00;100238.56;5112357;28;20126;-69
2021/10/20 06:27:04;;;;;;;;;;;;;;;12.00;100.00;100238.59;5112303;28;19924;-69
2021/10/20 06:29:32;;;;;;;;;;;;;;;12.06;100.00;100240.72;5112103;28;19930;-69
2021/10/20 06:31:58;;;;;;;;;;;;;;;12.11;100.00;100232.13;5112168;28;20506;-69
2021/10/20 06:34:24;;;;;;;;;;;;;;;12.09;100.00;100232.25;5112325;28;19942;-69
2021/10/20 06:36:50;;;;;;;;;;;;;;;12.10;100.00;100225.81;5112050;28;20413;-69
2021/10/20 06:39:20;;;;;;;;;;;;;;;12.10;100.00;100223.09;5110701;28;19924;-69
2021/10/20 06:41:47;;;;;;;;;;;;;;;12.16;100.00;100230.66;5112353;28;19924;-69
2021/10/20 06:44:13;;;;;;;;;;;;;;;12.23;100.00;100220.91;5112061;28;19924;-69
2021/10/20 06:46:41;;;;;;;;;;;;;;;12.33;100.00;100222.72;5111588;28;20472;-69
2021/10/20 06:49:07;;;;;;;;;;;;;;;12.45;100.00;100220.69;5112310;28;19923;-69
2021/10/20 06:51:33;;;;;;;;;;;;;;;12.54;100.00;100220.63;5111826;28;19930;-69
2021/10/20 06:54:00;;;;;;;;;;;;;;;12.66;100.00;100213.13;5111900;28;19928;-69
2021/10/20 06:56:26;;;;;;;;;;;;;;;12.78;100.00;100208.34;5111730;28;20436;-69
2021/10/20 06:58:52;;;;;;;;;;;;;;;12.82;100.00;100214.38;5111562;28;20298;-69
2021/10/20 07:01:18;;;;;;;;;;;;;;;12.86;100.00;100213.06;5112052;28;19928;-69
2021/10/20 07:03:46;;;;;;;;;;;;;;;12.92;100.00;100225.19;5111956;28;20526;-69
2021/10/20 07:06:12;;;;;;;;;;;;;;;12.98;100.00;100222.72;5111379;28;20023;-69
2021/10/20 07:08:39;;;;;;;;;;;;;;;13.05;100.00;100212.94;5111839;28;20022;-69
2021/10/20 07:11:05;;;;;;;;;;;;;;;13.11;100.00;100202.41;5111816;28;20004;-69
2021/10/20 07:13:31;;;;;;;;;;;;;;;13.11;100.00;100208.75;5111818;28;20026;-69
2021/10/20 07:15:58;;;;;;;;;;;;;;;13.18;100.00;100209.81;5111483;28;20022;-69
2021/10/20 07:18:26;;;;;;;;;;;;;;;13.22;100.00;100197.59;5111656;28;19946;-69
2021/10/20 07:20:54;;;;;;;;;;;;;;;13.27;100.00;100185.38;5110808;28;19924;-69
2021/10/20 07:23:20;;;;;;;;;;;;;;;13.31;100.00;100182.19;5111280;28;19924;-69
2021/10/20 07:25:47;;;;;;;;;;;;;;;13.43;100.00;100181.97;5111491;28;19930;-69
2021/10/20 07:28:13;;;;;;;;;;;;;;;13.53;100.00;100169.13;5111444;28;20194;-68
2021/10/20 07:30:41;;;;;;;;;;;;;;;13.62;100.00;100164.63;5111730;28;19928;-69
2021/10/20 07:33:07;;;;;;;;;;;;;;;13.72;100.00;100170.81;5111656;28;19924;-69
2021/10/20 07:35:33;;;;;;;;;;;;;;;13.85;100.00;100178.59;5111475;28;20026;-69
2021/10/20 07:38:01;;;;;;;;;;;;;;;13.95;100.00;100175.75;5114121;28;19931;-68
2021/10/20 07:40:27;;;;;;;;;;;;;;;13.99;100.00;100166.22;5115448;28;20018;-69
2021/10/20 07:42:54;;;;;;;;;;;;;;;14.10;100.00;100168.69;5115414;28;20339;-69
2021/10/20 07:45:20;;;;;;;;;;;;;;;14.28;100.00;100159.56;5115588;28;19924;-69
2021/10/20 07:47:47;;;;;;;;;;;;;;;14.48;100.00;100154.72;5115496;28;19970;-69
2021/10/20 07:50:13;;;;;;;;;;;;;;;14.62;100.00;100155.97;5115567;28;19924;-69
2021/10/20 07:52:40;;;;;;;;;;;;;;;14.62;100.00;100161.41;5115534;28;19927;-69
2021/10/20 07:55:08;;;;;;;;;;;;;;;14.55;100.00;100147.56;5115543;28;20359;-69
2021/10/20 07:57:35;;;;;;;;;;;;;;;14.45;100.00;100157.78;5114917;28;19974;-69
2021/10/20 08:00:01;;;;;;;;;;;;;;;14.41;100.00;100149.06;5115368;28;20022;-69
2021/10/20 08:02:27;;;;;;;;;;;;;;;14.49;100.00;100150.97;5115413;28;19959;-69
2021/10/20 08:04:54;;;;;;;;;;;;;;;14.64;100.00;100145.78;5115147;28;20027;-69
2021/10/20 08:07:20;;;;;;;;;;;;;;;14.76;100.00;100129.94;5115151;28;20150;-69
2021/10/20 08:09:48;;;;;;;;;;;;;;;14.80;100.00;100125.84;5115263;28;19924;-69
2021/10/20 08:12:17;;;;;;;;;;;;;;;14.67;100.00;100115.38;5115003;28;19923;-69
2021/10/20 08:14:43;;;;;;;;;;;;;;;14.68;100.00;100119.81;5114708;28;20405;-69
2021/10/20 08:17:09;;;;;;;;;;;;;;;14.76;100.00;100111.66;5114640;28;20072;-69
2021/10/20 08:19:37;;;;;;;;;;;;;;;15.07;100.00;100100.97;5114814;28;20017;-69
2021/10/20 08:22:03;;;;;;;;;;;;;;;15.53;100.00;100100.44;5114875;28;19950;-69
2021/10/20 08:24:29;;;;;;;;;;;;;;;15.94;100.00;100101.44;5114825;28;19927;-69
2021/10/20 08:26:56;;;;;;;;;;;;;;;16.28;100.00;100086.63;5114515;28;19924;-69
2021/10/20 08:29:23;;;;;;;;;;;;;;;16.29;100.00;100088.31;5114726;28;19959;-69
2021/10/20 08:31:49;;;;;;;;;;;;;;;16.46;100.00;100075.41;5114678;28;19939;-69
2021/10/20 08:34:16;;;;;;;;;;;;;;;16.87;100.00;100081.47;5113443;28;19923;-69
2021/10/20 08:36:42;;;;;;;;;;;;;;;17.23;100.00;100074.56;5114113;28;19923;-69
2021/10/20 08:39:08;;;;;;;;;;;;;;;17.30;100.00;100074.69;5114454;28;19924;-68
2021/10/20 08:41:35;;;;;;;;;;;;;;;17.47;100.00;100065.28;5114353;28;19924;-69
2021/10/20 08:44:02;;;;;;;;;;;;;;;17.93;100.00;100068.97;5114619;28;20395;-69
2021/10/20 08:46:29;;;;;;;;;;;;;;;18.14;100.00;100057.22;5114270;28;19959;-69
2021/10/20 08:48:56;;;;;;;;;;;;;;;18.30;100.00;100058.91;5113216;28;20018;-69
2021/10/20 08:51:24;;;;;;;;;;;;;;;18.12;100.00;100057.41;5113936;28;20306;-69
2021/10/20 08:53:50;;;;;;;;;;;;;;;18.15;100.00;100056.19;5114149;28;19936;-69
2021/10/20 08:56:17;;;;;;;;;;;;;;;17.62;100.00;100040.59;5114009;28;20371;-69
2021/10/20 08:58:43;;;;;;;;;;;;;;;17.27;100.00;100045.75;5114189;28;19924;-69
2021/10/20 09:01:10;;;;;;;;;;;;;;;17.27;100.00;100044.91;5114093;28;20019;-69
2021/10/20 09:03:37;;;;;;;;;;;;;;;17.33;100.00;100042.28;5114000;28;20026;-69
2021/10/20 09:06:03;;;;;;;;;;;;;;;17.55;100.00;100040.50;5113573;28;20018;-69
2021/10/20 09:08:38;;;;;;;;;;;;;;;17.71;100.00;100039.47;5112225;28;19931;-68
2021/10/20 09:11:16;;;;;;;;;;;;;;;17.54;100.00;100027.84;5114019;28;19934;-68
2021/10/20 09:13:42;;;;;;;;;;;;;;;17.51;100.00;100041.06;5110411;28;19934;-69
2021/10/20 09:16:09;;;;;;;;;;;;;;;17.17;100.00;100035.03;5113493;28;19971;-69
2021/10/20 09:18:39;;;;;;;;;;;;;;;16.90;100.00;100029.09;5113873;28;19924;-69
2021/10/20 09:21:06;;;;;;;;;;;;;;;16.59;100.00;100007.19;5113595;28;19924;-69
2021/10/20 09:23:33;;;;;;;;;;;;;;;16.63;100.00;100003.03;5113679;28;20011;-68
2021/10/20 09:26:00;;;;;;;;;;;;;;;16.71;100.00;100011.19;5113062;28;20025;-69
2021/10/20 09:28:27;;;;;;;;;;;;;;;16.70;100.00;100009.50;5113584;28;20017;-68
2021/10/20 09:30:57;;;;;;;;;;;;;;;16.54;100.00;100009.59;5113800;28;19988;-68
2021/10/20 09:33:23;;;;;;;;;;;;;;;16.29;100.00;99997.94;5113550;28;19924;-68
2021/10/20 09:35:51;;;;;;;;;;;;;;;16.14;100.00;100015.16;5113122;28;20329;-69
2021/10/20 09:38:17;;;;;;;;;;;;;;;15.96;100.00;100006.31;5113227;28;20015;-69
2021/10/20 09:40:44;;;;;;;;;;;;;;;15.76;100.00;99995.75;5113071;28;19924;-68
2021/10/20 09:43:12;;;;;;;;;;;;;;;15.69;100.00;99990.13;5113244;28;20026;-68
2021/10/20 09:45:39;;;;;;;;;;;;;;;15.70;100.00;99966.34;5112677;28;20023;-69
2021/10/20 09:48:09;;;;;;;;;;;;;;;15.72;100.00;99956.94;5113017;28;20347;-69
2021/10/20 09:50:38;;;;;;;;;;;;;;;15.77;100.00;99961.03;5113113;28;20391;-69
2021/10/20 09:53:05;;;;;;;;;;;;;;;15.77;100.00;99955.56;5113026;28;20050;-68
2021/10/20 09:55:32;;;;;;;;;;;;;;;15.74;100.00;99971.31;5111622;28;20375;-68
2021/10/20 09:58:00;;;;;;;;;;;;;;;15.73;100.00;99953.19;5112701;28;19923;-69
2021/10/20 10:00:27;;;;;;;;;;;;;;;15.69;100.00;99951.00;5112309;28;19977;-69
2021/10/20 10:02:53;;;;;;;;;;;;;;;15.73;100.00;99961.41;5112742;28;20018;-68
2021/10/20 10:05:20;;;;;;;;;;;;;;;15.69;100.00;99972.88;5112631;28;19933;-69
2021/10/20 10:07:47;;;;;;;;;;;;;;;15.74;100.00;99965.84;5112479;28;19930;-68
2021/10/20 10:10:14;;;;;;;;;;;;;;;15.83;100.00;99963.97;5112707;28;19962;-69
2021/10/20 10:12:42;;;;;;;;;;;;;;;15.83;100.00;99954.88;5112629;28;20023;-68
2021/10/20 10:15:10;;;;;;;;;;;;;;;15.81;100.00;99954.22;5112640;28;19924;-68
2021/10/20 10:17:38;;;;;;;;;;;;;;;15.81;100.00;99970.66;5112165;28;20375;-68
2021/10/20 10:20:06;;;;;;;;;;;;;;;15.78;100.00;99974.56;5112454;28;20330;-68
2021/10/20 10:22:32;;;;;;;;;;;;;;;15.81;100.00;99963.28;5112459;28;20224;-68
2021/10/20 10:25:00;;;;;;;;;;;;;;;15.82;100.00;99959.53;5112106;28;20410;-69
2021/10/20 10:27:29;;;;;;;;;;;;;;;15.86;100.00;99930.78;5112290;28;19927;-68
2021/10/20 10:29:56;;;;;;;;;;;;;;;15.87;100.00;99927.00;5112338;28;20530;-68
2021/10/20 10:32:25;;;;;;;;;;;;;;;15.89;100.00;99919.47;5112318;28;20018;-68
2021/10/20 10:34:52;;;;;;;;;;;;;;;15.89;100.00;99922.19;5112254;28;19923;-69
2021/10/20 10:37:25;;;;;;;;;;;;;;;15.81;100.00;99924.13;5111894;28;20022;-68
2021/10/20 10:39:52;;;;;;;;;;;;;;;15.86;100.00;99900.66;5112066;28;19928;-68
2021/10/20 10:42:18;;;;;;;;;;;;;;;15.83;100.00;99876.41;5112213;28;20022;-68
2021/10/20 10:44:48;;;;;;;;;;;;;;;16.01;100.00;99873.38;5111927;28;20478;-68
2021/10/20 10:47:17;;;;;;;;;;;;;;;16.10;100.00;99876.06;5111938;28;20383;-69
2021/10/20 10:49:45;;;;;;;;;;;;;;;16.05;100.00;99877.44;5112030;28;19927;-68
2021/10/20 10:52:16;;;;;;;;;;;;;;;16.02;100.00;99885.16;5112174;28;19924;-69
2021/10/20 10:54:53;;;;;;;;;;;;;;;15.97;100.00;99882.16;5111973;28;19931;-68
2021/10/20 10:57:19;;;;;;;;;;;;;;;15.82;100.00;99858.28;5111542;28;20014;-68
2021/10/20 10:59:53;;;;;;;;;;;;;;;15.73;100.00;99853.84;5111929;28;19923;-68
2021/10/20 11:02:40;;;;;;;;;;;;;;;15.67;100.00;99844.50;5111946;28;20379;-68
2021/10/20 11:05:07;;;;;;;;;;;;;;;15.69;100.00;99856.09;5111825;28;19963;-68
2021/10/20 11:07:33;;;;;;;;;;;;;;;15.61;100.00;99844.34;5111797;28;20462;-68
2021/10/20 11:10:00;;;;;;;;;;;;;;;15.48;100.00;99848.50;5111685;28;19924;-68
2021/10/20 11:12:26;;;;;;;;;;;;;;;15.28;100.00;99828.09;5109626;28;20022;-68
2021/10/20 11:14:55;;;;;;;;;;;;;;;15.21;100.00;99817.00;5111491;28;20015;-68
2021/10/20 11:17:22;;;;;;;;;;;;;;;15.20;100.00;99804.38;5111280;28;20030;-68
2021/10/20 11:19:48;;;;;;;;;;;;;;;15.16;100.00;99790.19;5108606;28;19924;-68
2021/10/20 11:22:16;;;;;;;;;;;;;;;15.28;100.00;99785.19;5101372;28;19923;-68
2021/10/20 11:24:43;;;;;;;;;;;;;;;15.44;100.00;99786.16;5111351;28;20466;-68
2021/10/20 11:27:09;;;;;;;;;;;;;;;15.57;100.00;99786.41;5105043;28;19977;-69
2021/10/20 11:29:39;;;;;;;;;;;;;;;15.67;100.00;99777.97;5093983;28;19924;-69
2021/10/20 11:32:09;;;;;;;;;;;;;;;15.79;100.00;99779.25;5094529;28;19928;-68
2021/10/20 11:34:38;;;;;;;;;;;;;;;15.82;100.00;99772.59;5091458;28;19930;-68
2021/10/20 11:37:05;;;;;;;;;;;;;;;15.84;100.00;99762.31;5104698;28;20014;-70
2021/10/20 11:39:31;;;;;;;;;;;;;;;15.74;100.00;99768.00;5104389;28;20023;-69
2021/10/20 11:41:58;;;;;;;;;;;;;;;15.63;100.00;99772.00;5092168;28;19928;-68
2021/10/20 11:44:26;;;;;;;;;;;;;;;15.54;100.00;99771.22;5098173;28;20014;-68
2021/10/20 11:46:54;;;;;;;;;;;;;;;15.54;100.00;99765.75;5110617;28;20023;-68
2021/10/20 11:49:22;;;;;;;;;;;;;;;15.52;100.00;99776.00;5095044;28;19924;-69
2021/10/20 11:51:49;;;;;;;;;;;;;;;15.59;100.00;99769.81;5090761;28;20379;-68
2021/10/20 11:54:16;;;;;;;;;;;;;;;15.65;100.00;99747.22;5089659;28;19928;-68
2021/10/20 11:56:48;;;;;;;;;;;;;;;15.63;100.00;99744.63;5090737;28;20018;-68
2021/10/20 11:59:18;;;;;;;;;;;;;;;15.63;100.00;99755.59;5093659;28;20022;-67
2021/10/20 12:01:45;;;;;;;;;;;;;;;15.61;100.00;99754.94;5099702;28;19927;-69
2021/10/20 12:04:11;;;;;;;;;;;;;;;15.64;100.00;99760.03;5107376;28;19978;-67
2021/10/20 12:06:39;;;;;;;;;;;;;;;15.70;100.00;99755.69;5092058;28;19924;-67
2021/10/20 12:09:06;;;;;;;;;;;;;;;15.72;100.00;99759.97;5090427;28;20405;-67
2021/10/20 12:11:33;;;;;;;;;;;;;;;15.79;100.00;99751.03;5089638;28;19936;-67
2021/10/20 12:14:04;;;;;;;;;;;;;;;15.82;100.00;99746.09;5088892;28;20471;-68
2021/10/20 12:16:30;;;;;;;;;;;;;;;15.85;100.00;99748.44;5088941;28;19924;-68
2021/10/20 12:18:58;;;;;;;;;;;;;;;15.91;100.00;99744.13;5089296;28;20335;-68
2021/10/20 12:21:27;;;;;;;;;;;;;;;15.94;100.00;99729.22;5089210;28;20094;-68
2021/10/20 12:23:56;;;;;;;;;;;;;;;16.02;100.00;99743.72;5091203;28;20011;-68
2021/10/20 12:26:23;;;;;;;;;;;;;;;16.19;100.00;99727.13;5092649;28;19934;-68